createdAt,value
2017-03-03T00:00:27.739Z,71.77
2017-03-03T00:01:27.773Z,71.77
2017-03-03T00:02:27.822Z,71.77
2017-03-03T00:03:27.838Z,71.77
2017-03-03T00:04:28.266Z,71.96
2017-03-03T00:05:27.907Z,71.67
2017-03-03T00:06:27.950Z,71.67
2017-03-03T00:07:27.972Z,71.77
2017-03-03T00:08:28.007Z,71.67
2017-03-03T00:09:28.042Z,71.67
2017-03-03T00:10:28.077Z,71.77
2017-03-03T00:11:28.110Z,71.67
2017-03-03T00:12:28.137Z,71.96
2017-03-03T00:13:28.199Z,71.96
2017-03-03T00:14:28.217Z,72.44
2017-03-03T00:15:28.241Z,72.44
2017-03-03T00:16:28.277Z,72.25
2017-03-03T00:17:28.307Z,72.25
2017-03-03T00:18:28.337Z,72.53
2017-03-03T00:19:28.389Z,72.63
2017-03-03T00:20:28.413Z,72.53
2017-03-03T00:21:28.455Z,72.25
2017-03-03T00:22:28.472Z,72.25
2017-03-03T00:23:28.517Z,72.06
2017-03-03T00:24:28.540Z,72.63
2017-03-03T00:25:28.573Z,72.53
2017-03-03T00:26:28.604Z,71.86
2017-03-03T00:27:28.643Z,72.44
2017-03-03T00:28:28.689Z,72.15
2017-03-03T00:29:28.707Z,72.25
2017-03-03T00:30:28.756Z,72.06
2017-03-03T00:31:28.773Z,72.15
2017-03-03T00:32:28.815Z,72.34
2017-03-03T00:33:28.840Z,72.53
2017-03-03T00:34:28.870Z,72.53
2017-03-03T00:35:28.908Z,72.53
2017-03-03T00:36:28.937Z,72.44
2017-03-03T00:37:28.991Z,72.44
2017-03-03T00:38:29.009Z,72.53
2017-03-03T00:39:29.049Z,72.34
2017-03-03T00:40:29.069Z,72.53
2017-03-03T00:41:29.103Z,72.34
2017-03-03T00:42:29.147Z,72.53
2017-03-03T00:43:29.174Z,72.44
2017-03-03T00:44:29.202Z,72.44
2017-03-03T00:45:29.237Z,72.15
2017-03-03T00:46:29.282Z,72.53
2017-03-03T00:47:29.338Z,72.44
2017-03-03T00:48:29.339Z,72.25
2017-03-03T00:49:29.383Z,72.06
2017-03-03T00:50:29.402Z,72.06
2017-03-03T00:51:29.433Z,72.3
2017-03-03T00:52:29.469Z,73
2017-03-03T00:53:29.502Z,72.81
2017-03-03T00:54:29.535Z,72.72
2017-03-03T00:55:29.568Z,72.63
2017-03-03T00:56:29.608Z,72.81
2017-03-03T00:57:29.637Z,72.81
2017-03-03T00:58:29.672Z,72.63
2017-03-03T00:59:29.700Z,72.91
2017-03-03T01:00:29.733Z,72.68
2017-03-03T01:01:29.779Z,72.53
2017-03-03T01:02:29.799Z,72.63
2017-03-03T01:03:29.834Z,72.81
2017-03-03T01:04:29.875Z,72.53
2017-03-03T01:05:29.909Z,72.63
2017-03-03T01:06:29.930Z,72.63
2017-03-03T01:07:29.966Z,73.1
2017-03-03T01:08:30.007Z,72.81
2017-03-03T01:09:30.028Z,72.3
2017-03-03T01:10:30.065Z,72.88
2017-03-03T01:11:30.097Z,72.91
2017-03-03T01:12:30.129Z,72.81
2017-03-03T01:13:30.163Z,72.68
2017-03-03T01:14:30.195Z,72.78
2017-03-03T01:15:30.242Z,72.59
2017-03-03T01:16:30.265Z,72.97
2017-03-03T01:17:30.308Z,73.54
2017-03-03T01:18:30.718Z,73.16
2017-03-03T01:19:30.363Z,73.25
2017-03-03T01:20:30.390Z,73.16
2017-03-03T01:21:30.428Z,73.16
2017-03-03T01:22:30.469Z,73.07
2017-03-03T01:23:30.496Z,73.44
2017-03-03T01:24:30.524Z,73.35
2017-03-03T01:25:30.567Z,73.35
2017-03-03T01:26:30.609Z,73.44
2017-03-03T01:27:30.619Z,73.72
2017-03-03T01:28:30.662Z,73.44
2017-03-03T01:29:30.690Z,73.44
2017-03-03T01:30:30.721Z,73.92
2017-03-03T01:31:30.754Z,73.44
2017-03-03T01:32:30.791Z,74.3
2017-03-03T01:33:30.823Z,74.01
2017-03-03T01:34:30.860Z,74.01
2017-03-03T01:35:30.884Z,73.82
2017-03-03T01:36:30.921Z,73.72
2017-03-03T01:37:30.966Z,74.39
2017-03-03T01:38:30.985Z,73.44
2017-03-03T01:39:31.017Z,73.92
2017-03-03T01:40:31.054Z,74.3
2017-03-03T01:41:31.484Z,73.82
2017-03-03T01:42:31.114Z,74.3
2017-03-03T01:43:31.150Z,74.11
2017-03-03T01:44:31.193Z,73.92
2017-03-03T01:45:31.215Z,74.11
2017-03-03T01:46:31.246Z,74.11
2017-03-03T01:47:31.280Z,74.11
2017-03-03T01:48:31.312Z,74.11
2017-03-03T01:49:31.344Z,73.82
2017-03-03T01:50:31.383Z,74.11
2017-03-03T01:51:31.411Z,74.01
2017-03-03T01:52:31.455Z,74.11
2017-03-03T01:53:31.477Z,73.92
2017-03-03T01:54:31.509Z,73.92
2017-03-03T01:55:31.541Z,74.11
2017-03-03T01:56:31.573Z,74.11
2017-03-03T01:57:31.611Z,73.82
2017-03-03T01:58:31.638Z,73.82
2017-03-03T01:59:31.683Z,74.11
2017-03-03T02:00:31.703Z,74.01
2017-03-03T02:01:44.490Z,74.11
2017-03-03T02:02:31.802Z,74.11
2017-03-03T02:03:31.823Z,74.01
2017-03-03T02:04:31.854Z,74.11
2017-03-03T02:05:31.890Z,74.11
2017-03-03T02:06:31.923Z,74.01
2017-03-03T02:07:31.957Z,73.82
2017-03-03T02:08:31.992Z,73.82
2017-03-03T02:09:32.027Z,73.82
2017-03-03T02:10:32.055Z,73.92
2017-03-03T02:11:32.088Z,74.01
2017-03-03T02:12:32.115Z,73.92
2017-03-03T02:13:32.153Z,74.01
2017-03-03T02:14:32.191Z,73.92
2017-03-03T02:15:32.223Z,73.92
2017-03-03T02:16:32.248Z,74.11
2017-03-03T02:17:32.294Z,73.63
2017-03-03T02:18:32.308Z,73.54
2017-03-03T02:19:32.345Z,73.82
2017-03-03T02:20:32.376Z,73.63
2017-03-03T02:21:32.407Z,74.2
2017-03-03T02:22:32.442Z,73.44
2017-03-03T02:23:32.478Z,73.54
2017-03-03T02:24:32.513Z,73.72
2017-03-03T02:25:32.540Z,74.2
2017-03-03T02:26:32.602Z,73.44
2017-03-03T02:27:32.604Z,74.2
2017-03-03T02:28:32.637Z,74.2
2017-03-03T02:29:33.068Z,73.54
2017-03-03T02:30:32.713Z,73.72
2017-03-03T02:31:32.738Z,73.63
2017-03-03T02:32:33.163Z,73.92
2017-03-03T02:33:32.803Z,73.82
2017-03-03T02:34:32.836Z,73.82
2017-03-03T02:35:32.869Z,73.72
2017-03-03T02:36:32.902Z,73.44
2017-03-03T02:37:32.929Z,73.63
2017-03-03T02:38:32.974Z,74.01
2017-03-03T02:39:33.033Z,73.92
2017-03-03T02:40:33.043Z,73.92
2017-03-03T02:41:33.074Z,73.44
2017-03-03T02:42:33.097Z,73.69
2017-03-03T02:43:33.131Z,73.41
2017-03-03T02:44:33.167Z,74.01
2017-03-03T02:45:33.189Z,73.5
2017-03-03T02:46:33.222Z,74.01
2017-03-03T02:47:33.257Z,73.92
2017-03-03T02:48:33.289Z,73.63
2017-03-03T02:49:33.324Z,73.92
2017-03-03T02:50:33.356Z,74.11
2017-03-03T02:51:33.385Z,74.2
2017-03-03T02:52:33.422Z,73.82
2017-03-03T02:53:33.454Z,73.92
2017-03-03T02:54:33.493Z,73.82
2017-03-03T02:55:33.534Z,73.82
2017-03-03T02:56:33.938Z,73.92
2017-03-03T02:57:33.584Z,73.82
2017-03-03T02:58:33.617Z,73.79
2017-03-03T02:59:34.058Z,73.92
2017-03-03T03:00:33.682Z,73.92
2017-03-03T03:01:33.727Z,74.11
2017-03-03T03:02:33.746Z,74.3
2017-03-03T03:03:33.782Z,74.11
2017-03-03T03:04:33.812Z,73.82
2017-03-03T03:05:33.841Z,74.39
2017-03-03T03:06:33.878Z,73.82
2017-03-03T03:07:33.908Z,73.82
2017-03-03T03:08:33.939Z,73.63
2017-03-03T03:09:33.971Z,73.82
2017-03-03T03:10:34.005Z,74.11
2017-03-03T03:11:34.044Z,74.11
2017-03-03T03:12:34.074Z,73.54
2017-03-03T03:13:34.105Z,74.01
2017-03-03T03:14:34.151Z,74.01
2017-03-03T03:15:34.178Z,73.82
2017-03-03T03:16:34.214Z,73.63
2017-03-03T03:17:34.239Z,73.54
2017-03-03T03:18:34.263Z,73.54
2017-03-03T03:19:34.303Z,74.11
2017-03-03T03:20:34.333Z,73.44
2017-03-03T03:21:34.366Z,73.54
2017-03-03T03:22:34.795Z,74.11
2017-03-03T03:23:34.431Z,74.01
2017-03-03T03:24:34.482Z,74.01
2017-03-03T03:25:34.493Z,73.54
2017-03-03T03:26:34.531Z,73.92
2017-03-03T03:27:34.571Z,74.3
2017-03-03T03:28:34.600Z,73.92
2017-03-03T03:29:34.634Z,74.11
2017-03-03T03:30:34.656Z,74.3
2017-03-03T03:31:34.694Z,74.01
2017-03-03T03:32:34.737Z,74.01
2017-03-03T03:33:34.756Z,74.01
2017-03-03T03:34:34.791Z,73.92
2017-03-03T03:35:34.826Z,73.35
2017-03-03T03:36:34.856Z,73.82
2017-03-03T03:37:34.891Z,73.44
2017-03-03T03:38:34.920Z,73.54
2017-03-03T03:39:34.956Z,73.63
2017-03-03T03:40:34.998Z,73.92
2017-03-03T03:41:35.021Z,73.54
2017-03-03T03:42:35.070Z,73.72
2017-03-03T03:43:35.087Z,73.35
2017-03-03T03:44:35.114Z,73.35
2017-03-03T03:45:35.542Z,73.35
2017-03-03T03:46:35.191Z,73.44
2017-03-03T03:47:35.221Z,74.2
2017-03-03T03:48:35.250Z,73.25
2017-03-03T03:49:35.680Z,73.44
2017-03-03T03:50:35.307Z,74.11
2017-03-03T03:51:35.347Z,74.3
2017-03-03T03:52:35.772Z,74.01
2017-03-03T03:53:35.418Z,73.92
2017-03-03T03:54:35.444Z,73.82
2017-03-03T03:55:35.476Z,74.11
2017-03-03T03:56:35.516Z,74.3
2017-03-03T03:57:35.549Z,74.39
2017-03-03T03:58:35.602Z,74.39
2017-03-03T03:59:35.608Z,74.11
2017-03-03T04:00:35.644Z,74.11
2017-03-03T04:01:35.676Z,74.01
2017-03-03T04:02:35.709Z,74.2
2017-03-03T04:03:35.753Z,74.2
2017-03-03T04:04:35.772Z,74.2
2017-03-03T04:05:35.807Z,74.3
2017-03-03T04:06:35.841Z,74.3
2017-03-03T04:07:35.868Z,74.49
2017-03-03T04:08:35.904Z,74.3
2017-03-03T04:09:35.937Z,74.49
2017-03-03T04:10:35.978Z,74.49
2017-03-03T04:11:35.998Z,74.49
2017-03-03T04:12:36.034Z,74.64
2017-03-03T04:13:36.071Z,74.39
2017-03-03T04:14:36.103Z,74.58
2017-03-03T04:15:36.130Z,74.58
2017-03-03T04:16:36.164Z,74.64
2017-03-03T04:17:36.209Z,74.39
2017-03-03T04:18:36.226Z,74.58
2017-03-03T04:19:36.265Z,74.68
2017-03-03T04:20:36.296Z,74.77
2017-03-03T04:21:36.714Z,74.54
2017-03-03T04:22:36.374Z,74.87
2017-03-03T04:23:36.388Z,75.05
2017-03-03T04:24:36.421Z,74.87
2017-03-03T04:25:36.453Z,74.77
2017-03-03T04:26:36.489Z,74.77
2017-03-03T04:27:36.533Z,75.11
2017-03-03T04:28:36.550Z,74.87
2017-03-03T04:29:36.989Z,74.83
2017-03-03T04:30:36.618Z,74.96
2017-03-03T04:31:36.644Z,74.87
2017-03-03T04:32:36.680Z,74.73
2017-03-03T04:33:36.717Z,74.73
2017-03-03T04:34:36.741Z,74.96
2017-03-03T04:35:36.777Z,74.87
2017-03-03T04:36:36.826Z,74.68
2017-03-03T04:37:36.853Z,74.77
2017-03-03T04:38:36.882Z,74.64
2017-03-03T04:39:36.912Z,74.54
2017-03-03T04:40:36.941Z,74.83
2017-03-03T04:41:36.975Z,74.83
2017-03-03T04:42:37.002Z,74.83
2017-03-03T04:43:37.044Z,74.83
2017-03-03T04:44:37.082Z,74.64
2017-03-03T04:45:37.499Z,74.73
2017-03-03T04:46:37.142Z,74.73
2017-03-03T04:47:37.170Z,74.68
2017-03-03T04:48:37.195Z,74.83
2017-03-03T04:49:37.242Z,75.15
2017-03-03T04:50:37.275Z,74.73
2017-03-03T04:51:37.316Z,75.11
2017-03-03T04:52:37.326Z,74.92
2017-03-03T04:53:37.359Z,74.92
2017-03-03T04:54:37.396Z,74.83
2017-03-03T04:55:37.428Z,75.11
2017-03-03T04:56:37.460Z,74.92
2017-03-03T04:57:37.492Z,75.11
2017-03-03T04:58:37.518Z,75.02
2017-03-03T04:59:37.960Z,74.92
2017-03-03T05:00:37.608Z,74.64
2017-03-03T05:01:37.623Z,74.73
2017-03-03T05:02:37.651Z,74.45
2017-03-03T05:03:37.683Z,74.73
2017-03-03T05:04:37.719Z,74.73
2017-03-03T05:05:37.749Z,74.73
2017-03-03T05:06:37.781Z,74.73
2017-03-03T05:07:37.823Z,74.64
2017-03-03T05:08:37.992Z,74.45
2017-03-03T05:09:37.889Z,74.92
2017-03-03T05:10:37.917Z,74.45
2017-03-03T05:11:37.949Z,74.64
2017-03-03T05:12:37.974Z,74.64
2017-03-03T05:13:38.023Z,74.45
2017-03-03T05:14:38.042Z,74.73
2017-03-03T05:15:38.083Z,74.64
2017-03-03T05:16:38.108Z,74.45
2017-03-03T05:17:38.528Z,74.54
2017-03-03T05:18:38.165Z,74.92
2017-03-03T05:19:38.201Z,74.92
2017-03-03T05:20:38.236Z,74.92
2017-03-03T05:21:38.267Z,74.92
2017-03-03T05:22:38.298Z,74.92
2017-03-03T05:23:38.328Z,74.83
2017-03-03T05:24:38.371Z,74.92
2017-03-03T05:25:38.401Z,74.73
2017-03-03T05:26:38.429Z,74.64
2017-03-03T05:27:38.463Z,74.73
2017-03-03T05:28:38.493Z,74.64
2017-03-03T05:29:38.521Z,75.02
2017-03-03T05:30:38.558Z,74.64
2017-03-03T05:31:38.609Z,74.73
2017-03-03T05:32:38.621Z,75.11
2017-03-03T05:33:38.654Z,74.83
2017-03-03T05:34:38.682Z,74.83
2017-03-03T05:35:38.715Z,74.73
2017-03-03T05:36:38.749Z,74.64
2017-03-03T05:37:38.795Z,74.64
2017-03-03T05:38:38.814Z,74.64
2017-03-03T05:39:38.845Z,74.64
2017-03-03T05:40:38.879Z,75.02
2017-03-03T05:41:38.915Z,74.92
2017-03-03T05:42:38.940Z,74.92
2017-03-03T05:43:38.973Z,75.02
2017-03-03T05:44:39.003Z,75.11
2017-03-03T05:45:39.053Z,75.11
2017-03-03T05:46:39.076Z,74.79
2017-03-03T05:47:39.115Z,75.07
2017-03-03T05:48:39.144Z,75.17
2017-03-03T05:49:39.187Z,75.02
2017-03-03T05:50:39.198Z,74.79
2017-03-03T05:51:39.237Z,75.07
2017-03-03T05:52:39.258Z,74.69
2017-03-03T05:53:39.289Z,75.07
2017-03-03T05:54:39.332Z,74.64
2017-03-03T05:55:39.357Z,74.64
2017-03-03T05:56:39.398Z,74.83
2017-03-03T05:57:39.419Z,74.73
2017-03-03T05:58:39.451Z,74.64
2017-03-03T05:59:40.375Z,74.83
2017-03-03T06:00:39.524Z,74.64
2017-03-03T06:01:39.561Z,74.83
2017-03-03T06:02:39.581Z,74.92
2017-03-03T06:03:40.522Z,74.45
2017-03-03T06:04:39.657Z,74.64
2017-03-03T06:05:39.694Z,74.73
2017-03-03T06:06:39.707Z,74.83
2017-03-03T06:07:39.769Z,74.64
2017-03-03T06:08:39.787Z,74.64
2017-03-03T06:09:40.674Z,74.26
2017-03-03T06:10:39.845Z,74.45
2017-03-03T06:11:39.869Z,74.07
2017-03-03T06:12:39.904Z,74.54
2017-03-03T06:13:39.950Z,74.16
2017-03-03T06:14:39.977Z,73.79
2017-03-03T06:15:40.000Z,73.97
2017-03-03T06:16:40.035Z,74.26
2017-03-03T06:17:40.062Z,74.35
2017-03-03T06:18:40.098Z,73.69
2017-03-03T06:19:40.140Z,74.07
2017-03-03T06:20:40.165Z,73.41
2017-03-03T06:21:40.206Z,74.16
2017-03-03T06:22:40.231Z,73.6
2017-03-03T06:23:40.261Z,74.16
2017-03-03T06:24:40.290Z,73.63
2017-03-03T06:25:40.321Z,73.44
2017-03-03T06:26:40.355Z,73.82
2017-03-03T06:27:40.390Z,73.63
2017-03-03T06:28:40.424Z,73.63
2017-03-03T06:29:40.457Z,73.07
2017-03-03T06:30:40.491Z,73.35
2017-03-03T06:31:40.546Z,73.35
2017-03-03T06:32:40.565Z,73.07
2017-03-03T06:33:40.585Z,72.59
2017-03-03T06:34:40.619Z,72.88
2017-03-03T06:35:40.652Z,72.88
2017-03-03T06:36:40.708Z,73.07
2017-03-03T06:37:41.126Z,72.59
2017-03-03T06:38:40.750Z,72.49
2017-03-03T06:39:40.932Z,72.78
2017-03-03T06:40:40.843Z,72.68
2017-03-03T06:41:40.848Z,72.21
2017-03-03T06:42:40.883Z,72.59
2017-03-03T06:43:40.913Z,72.21
2017-03-03T06:44:40.946Z,71.58
2017-03-03T06:45:40.990Z,71.77
2017-03-03T06:46:41.028Z,71.77
2017-03-03T06:47:41.054Z,71.48
2017-03-03T06:48:41.094Z,71.86
2017-03-03T06:49:41.112Z,71.86
2017-03-03T06:50:41.144Z,71.3
2017-03-03T06:51:41.181Z,71.3
2017-03-03T06:52:41.223Z,71.58
2017-03-03T06:53:41.244Z,70.92
2017-03-03T06:54:41.285Z,70.63
2017-03-03T06:55:41.318Z,70.82
2017-03-03T06:56:41.349Z,70.48
2017-03-03T06:57:41.386Z,70.38
2017-03-03T06:58:41.425Z,70.29
2017-03-03T06:59:41.843Z,69.71
2017-03-03T07:00:41.489Z,69.91
2017-03-03T07:01:41.519Z,69.81
2017-03-03T07:02:41.553Z,69.43
2017-03-03T07:03:41.592Z,69.43
2017-03-03T07:04:41.644Z,69.24
2017-03-03T07:05:41.653Z,69.34
2017-03-03T07:06:42.081Z,69.46
2017-03-03T07:07:41.728Z,69.37
2017-03-03T07:08:42.026Z,69.09
2017-03-03T07:09:41.789Z,68.65
2017-03-03T07:10:41.828Z,68.65
2017-03-03T07:11:41.866Z,68.65
2017-03-03T07:12:41.893Z,67.92
2017-03-03T07:13:41.929Z,68.21
2017-03-03T07:14:41.968Z,68.11
2017-03-03T07:15:42.002Z,67.73
2017-03-03T07:16:42.067Z,67.86
2017-03-03T07:17:42.071Z,67.29
2017-03-03T07:18:42.105Z,66.75
2017-03-03T07:19:42.156Z,66.56
2017-03-03T07:20:42.181Z,65.83
2017-03-03T07:21:42.220Z,65.58
2017-03-03T07:22:42.253Z,65.2
2017-03-03T07:23:42.287Z,64.65
2017-03-03T07:24:42.327Z,63.8
2017-03-03T07:25:42.366Z,63.92
2017-03-03T07:26:42.411Z,63.45
2017-03-03T07:27:42.434Z,62.62
2017-03-03T07:28:42.471Z,62.43
2017-03-03T07:29:42.518Z,62.46
2017-03-03T07:30:42.550Z,60.64
2017-03-03T07:31:42.688Z,60.49
2017-03-03T07:32:42.645Z,58.95
2017-03-03T07:33:42.662Z,58.48
2017-03-03T07:34:42.700Z,58.12
2017-03-03T07:35:42.739Z,57.55
2017-03-03T07:36:42.775Z,57.07
2017-03-03T07:37:42.835Z,55.04
2017-03-03T07:38:42.854Z,55.04
2017-03-03T07:39:42.899Z,54.56
2017-03-03T07:40:42.937Z,53.96
2017-03-03T07:41:42.971Z,53.86
2017-03-03T07:42:43.004Z,53.74
2017-03-03T07:43:43.043Z,54.22
2017-03-03T07:44:43.075Z,53.74
2017-03-03T07:45:43.506Z,53.74
2017-03-03T07:46:43.169Z,53.65
2017-03-03T07:47:43.190Z,54.34
2017-03-03T07:48:43.239Z,53.89
2017-03-03T07:49:43.295Z,53.16
2017-03-03T07:50:43.310Z,53.44
2017-03-03T07:51:43.359Z,52.42
2017-03-03T07:52:43.391Z,52.25
2017-03-03T07:53:43.435Z,51.7
2017-03-03T07:54:43.466Z,50.96
2017-03-03T07:55:43.501Z,50.48
2017-03-03T07:56:43.554Z,49.16
2017-03-03T07:57:43.583Z,48.69
2017-03-03T07:58:43.625Z,48.52
2017-03-03T07:59:43.660Z,47.27
2017-03-03T08:00:43.702Z,46.79
2017-03-03T08:01:43.753Z,45.93
2017-03-03T08:02:43.784Z,45.74
2017-03-03T08:03:44.227Z,44.78
2017-03-03T08:04:43.860Z,44.78
2017-03-03T08:05:43.908Z,45.04
2017-03-03T08:06:43.948Z,43.41
2017-03-03T08:07:43.998Z,43.41
2017-03-03T08:08:44.036Z,43.59
2017-03-03T08:09:44.068Z,43.66
2017-03-03T08:10:44.103Z,43.18
2017-03-03T08:11:44.142Z,43.35
2017-03-03T08:12:44.204Z,42.87
2017-03-03T08:13:44.234Z,43.35
2017-03-03T08:14:44.262Z,43.71
2017-03-03T08:15:44.303Z,43.52
2017-03-03T08:16:44.336Z,43.3
2017-03-03T08:17:44.374Z,43.4
2017-03-03T08:18:44.428Z,43.4
2017-03-03T08:19:44.516Z,43.3
2017-03-03T08:20:44.498Z,43.48
2017-03-03T08:21:44.581Z,43.09
2017-03-03T08:22:44.590Z,43.29
2017-03-03T08:23:44.617Z,43.48
2017-03-03T08:24:44.657Z,43.66
2017-03-03T08:25:44.698Z,43.76
2017-03-03T08:26:44.826Z,44.22
2017-03-03T08:27:44.780Z,44.02
2017-03-03T08:28:44.816Z,44.12
2017-03-03T08:29:44.857Z,43.74
2017-03-03T08:30:44.881Z,43.93
2017-03-03T08:31:44.923Z,44.22
2017-03-03T08:32:44.968Z,44.12
2017-03-03T08:33:45.012Z,44.01
2017-03-03T08:34:45.039Z,44.1
2017-03-03T08:35:45.074Z,44.38
2017-03-03T08:36:45.114Z,44.67
2017-03-03T08:37:45.170Z,44.67
2017-03-03T08:38:45.197Z,44.48
2017-03-03T08:39:45.227Z,44.87
2017-03-03T08:40:45.266Z,45.03
2017-03-03T08:41:45.303Z,45.32
2017-03-03T08:42:45.341Z,45.42
2017-03-03T08:43:45.382Z,45.61
2017-03-03T08:44:45.421Z,45.42
2017-03-03T08:45:45.469Z,45.32
2017-03-03T08:46:45.491Z,45.7
2017-03-03T08:47:45.533Z,45.51
2017-03-03T08:48:45.580Z,45.68
2017-03-03T08:49:45.614Z,45.68
2017-03-03T08:50:45.645Z,46.15
2017-03-03T08:51:45.682Z,45.97
2017-03-03T08:52:45.718Z,46.25
2017-03-03T08:53:45.762Z,46.44
2017-03-03T08:54:45.801Z,46.15
2017-03-03T08:55:45.857Z,46.15
2017-03-03T08:56:45.874Z,46.63
2017-03-03T08:57:45.917Z,47.11
2017-03-03T08:58:45.944Z,47.2
2017-03-03T08:59:46.370Z,47.2
2017-03-03T09:00:46.020Z,47.02
2017-03-03T09:01:46.070Z,47.11
2017-03-03T09:02:46.099Z,47.3
2017-03-03T09:03:46.167Z,46.92
2017-03-03T09:04:46.186Z,47.11
2017-03-03T09:05:46.212Z,47.61
2017-03-03T09:06:46.252Z,47.71
2017-03-03T09:07:46.281Z,47.63
2017-03-03T09:08:46.337Z,47.63
2017-03-03T09:09:46.363Z,47.47
2017-03-03T09:10:46.405Z,47.58
2017-03-03T09:11:46.449Z,47.52
2017-03-03T09:12:46.478Z,47.53
2017-03-03T09:13:46.540Z,47.27
2017-03-03T09:14:46.563Z,47.01
2017-03-03T09:15:46.605Z,46.39
2017-03-03T09:16:46.694Z,46.12
2017-03-03T09:17:46.689Z,44.8
2017-03-03T09:18:46.735Z,43.38
2017-03-03T09:19:46.769Z,42.73
2017-03-03T09:20:46.842Z,42.44
2017-03-03T09:21:46.860Z,41.7
2017-03-03T09:22:47.296Z,39.12
2017-03-03T09:23:47.350Z,38.45
2017-03-03T09:24:46.993Z,39.12
2017-03-03T09:25:47.202Z,39.61
2017-03-03T09:26:47.082Z,38.64
2017-03-03T09:27:47.521Z,37.59
2017-03-03T09:28:47.181Z,37.79
2017-03-03T09:29:47.313Z,36.93
2017-03-03T09:30:47.659Z,36.93
2017-03-03T09:31:47.709Z,36.95
2017-03-03T09:32:47.779Z,36.56
2017-03-03T09:33:47.803Z,35.41
2017-03-03T09:34:47.850Z,35.24
2017-03-03T09:35:47.892Z,34.66
2017-03-03T09:36:47.565Z,33.79
2017-03-03T09:37:47.991Z,33.59
2017-03-03T09:38:47.643Z,33.79
2017-03-03T09:39:47.745Z,32.06
2017-03-03T09:40:47.744Z,32.43
2017-03-03T09:41:47.784Z,32.23
2017-03-03T09:42:47.847Z,31.95
2017-03-03T09:43:47.888Z,32.03
2017-03-03T09:44:47.929Z,31.45
2017-03-03T09:45:48.365Z,31.45
2017-03-03T09:46:48.415Z,31.26
2017-03-03T09:47:48.462Z,31.45
2017-03-03T09:48:49.036Z,31.35
2017-03-03T09:49:48.168Z,31.74
2017-03-03T09:50:48.213Z,31.64
2017-03-03T09:51:48.311Z,31.37
2017-03-03T09:52:48.699Z,31.18
2017-03-03T09:53:48.751Z,31.27
2017-03-03T09:54:48.841Z,31.29
2017-03-03T09:55:48.843Z,30.98
2017-03-03T09:56:48.503Z,30.71
2017-03-03T09:57:48.956Z,29.74
2017-03-03T09:58:48.994Z,29.74
2017-03-03T09:59:48.643Z,29.94
2017-03-03T10:00:49.092Z,29.84
2017-03-03T10:01:48.745Z,29.74
2017-03-03T10:02:49.187Z,29.74
2017-03-03T10:03:49.235Z,29.46
2017-03-03T10:04:48.910Z,29.65
2017-03-03T10:05:49.328Z,28.97
2017-03-03T10:06:49.480Z,28.97
2017-03-03T10:07:49.435Z,28.11
2017-03-03T10:08:49.477Z,28.4
2017-03-03T10:09:49.132Z,27.92
2017-03-03T10:10:49.189Z,27.92
2017-03-03T10:11:49.237Z,27.92
2017-03-03T10:12:49.290Z,27.92
2017-03-03T10:13:49.331Z,28.02
2017-03-03T10:14:49.403Z,28.13
2017-03-03T10:15:49.434Z,27.44
2017-03-03T10:16:49.490Z,27.35
2017-03-03T10:17:49.530Z,27.24
2017-03-03T10:18:49.584Z,27.34
2017-03-03T10:19:49.629Z,27.45
2017-03-03T10:20:50.083Z,27.35
2017-03-03T10:21:49.885Z,27.06
2017-03-03T10:22:50.170Z,26.86
2017-03-03T10:23:49.831Z,26.39
2017-03-03T10:24:50.274Z,25.91
2017-03-03T10:25:49.965Z,26.2
2017-03-03T10:26:50.378Z,26.28
2017-03-03T10:27:50.040Z,25.81
2017-03-03T10:28:50.102Z,25.03
2017-03-03T10:29:50.134Z,25.22
2017-03-03T10:30:50.196Z,24.93
2017-03-03T10:31:50.239Z,25.12
2017-03-03T10:32:50.679Z,25.03
2017-03-03T10:33:50.339Z,25.22
2017-03-03T10:34:50.386Z,25.22
2017-03-03T10:35:50.828Z,24.93
2017-03-03T10:36:50.497Z,24.93
2017-03-03T10:37:50.935Z,24.74
2017-03-03T10:38:51.001Z,24.26
2017-03-03T10:39:50.643Z,23.97
2017-03-03T10:40:50.692Z,23
2017-03-03T10:41:50.743Z,23.67
2017-03-03T10:42:50.851Z,23.56
2017-03-03T10:43:50.847Z,23.08
2017-03-03T10:44:51.287Z,23.18
2017-03-03T10:45:50.948Z,23.26
2017-03-03T10:46:51.491Z,23.55
2017-03-03T10:47:51.043Z,23.36
2017-03-03T10:48:51.095Z,23.46
2017-03-03T10:49:51.150Z,23.94
2017-03-03T10:50:51.217Z,24.14
2017-03-03T10:51:51.243Z,24.43
2017-03-03T10:52:51.319Z,23.94
2017-03-03T10:53:51.349Z,23.56
2017-03-03T10:54:51.526Z,23.47
2017-03-03T10:55:51.446Z,23.86
2017-03-03T10:56:51.894Z,23.86
2017-03-03T10:57:51.547Z,23.86
2017-03-03T10:58:52.067Z,23.67
2017-03-03T10:59:52.045Z,23.3
2017-03-03T11:00:51.749Z,23.47
2017-03-03T11:01:51.760Z,23.96
2017-03-03T11:02:52.193Z,23.86
2017-03-03T11:03:51.853Z,23.57
2017-03-03T11:04:51.910Z,23.57
2017-03-03T11:05:51.973Z,23.67
2017-03-03T11:06:52.027Z,23.96
2017-03-03T11:07:52.065Z,23.38
2017-03-03T11:08:52.116Z,23.77
2017-03-03T11:09:52.166Z,23.38
2017-03-03T11:10:52.213Z,23.19
2017-03-03T11:11:52.743Z,23.57
2017-03-03T11:12:52.322Z,23.28
2017-03-03T11:13:52.372Z,23.19
2017-03-03T11:14:52.407Z,23.08
2017-03-03T11:15:52.461Z,23.18
2017-03-03T11:16:52.910Z,23.75
2017-03-03T11:17:52.579Z,23.46
2017-03-03T11:18:52.605Z,23.84
2017-03-03T11:19:53.048Z,23.55
2017-03-03T11:20:53.108Z,23.46
2017-03-03T11:21:53.146Z,23.66
2017-03-03T11:22:52.801Z,23.37
2017-03-03T11:23:52.849Z,23.46
2017-03-03T11:24:52.919Z,23.37
2017-03-03T11:25:52.946Z,23.37
2017-03-03T11:26:53.402Z,23.75
2017-03-03T11:27:53.044Z,22.99
2017-03-03T11:28:53.098Z,22.79
2017-03-03T11:29:53.136Z,22.69
2017-03-03T11:30:53.185Z,23.27
2017-03-03T11:31:53.235Z,22.79
2017-03-03T11:32:53.283Z,22.6
2017-03-03T11:33:53.325Z,22.99
2017-03-03T11:34:53.371Z,22.59
2017-03-03T11:35:53.436Z,22.79
2017-03-03T11:36:53.470Z,22.88
2017-03-03T11:37:53.516Z,22.59
2017-03-03T11:38:53.949Z,22.3
2017-03-03T11:39:53.609Z,22.39
2017-03-03T11:40:53.661Z,22.77
2017-03-03T11:41:53.702Z,22.77
2017-03-03T11:42:54.162Z,22.67
2017-03-03T11:43:54.183Z,22.77
2017-03-03T11:44:53.839Z,22.77
2017-03-03T11:45:53.887Z,23.15
2017-03-03T11:46:54.338Z,23.06
2017-03-03T11:47:53.987Z,23.43
2017-03-03T11:48:54.019Z,23.24
2017-03-03T11:49:54.462Z,23.54
2017-03-03T11:50:54.125Z,22.95
2017-03-03T11:51:54.571Z,23.43
2017-03-03T11:52:54.200Z,23.33
2017-03-03T11:53:54.247Z,23.52
2017-03-03T11:54:54.291Z,23.52
2017-03-03T11:55:54.336Z,23.61
2017-03-03T11:56:54.378Z,23.52
2017-03-03T11:57:54.422Z,23.52
2017-03-03T11:58:54.487Z,23.42
2017-03-03T11:59:54.907Z,23.71
2017-03-03T12:00:54.554Z,23.8
2017-03-03T12:01:54.597Z,23.79
2017-03-03T12:02:55.032Z,23.9
2017-03-03T12:03:55.079Z,23.9
2017-03-03T12:04:55.134Z,24.19
2017-03-03T12:05:54.776Z,24.37
2017-03-03T12:06:54.814Z,24.18
2017-03-03T12:07:54.875Z,24.46
2017-03-03T12:08:54.902Z,24.08
2017-03-03T12:09:54.951Z,24.08
2017-03-03T12:10:54.998Z,24.37
2017-03-03T12:11:55.439Z,24.27
2017-03-03T12:12:55.075Z,24.08
2017-03-03T12:13:55.125Z,24.27
2017-03-03T12:14:55.157Z,24.27
2017-03-03T12:15:55.605Z,23.98
2017-03-03T12:16:55.639Z,24.07
2017-03-03T12:17:55.306Z,24.07
2017-03-03T12:18:55.332Z,24.35
2017-03-03T12:19:55.373Z,24.26
2017-03-03T12:20:55.413Z,24.93
2017-03-03T12:21:55.874Z,25.11
2017-03-03T12:22:55.504Z,25.4
2017-03-03T12:23:55.935Z,25.59
2017-03-03T12:24:55.588Z,25.49
2017-03-03T12:25:55.626Z,25.97
2017-03-03T12:26:56.071Z,25.97
2017-03-03T12:27:55.717Z,25.97
2017-03-03T12:28:55.750Z,26.08
2017-03-03T12:29:55.789Z,26.46
2017-03-03T12:30:55.830Z,26.85
2017-03-03T12:31:55.885Z,26.65
2017-03-03T12:32:55.925Z,26.83
2017-03-03T12:33:56.354Z,26.83
2017-03-03T12:34:56.390Z,27.01
2017-03-03T12:35:56.049Z,27.11
2017-03-03T12:36:56.095Z,27.3
2017-03-03T12:37:56.516Z,27.78
2017-03-03T12:38:56.166Z,27.87
2017-03-03T12:39:56.595Z,27.97
2017-03-03T12:40:56.639Z,27.97
2017-03-03T12:41:56.676Z,27.87
2017-03-03T12:42:56.719Z,27.78
2017-03-03T12:43:56.371Z,27.95
2017-03-03T12:44:56.806Z,28.05
2017-03-03T12:45:56.471Z,27.95
2017-03-03T12:46:56.900Z,27.95
2017-03-03T12:47:56.548Z,27.95
2017-03-03T12:48:56.578Z,28.15
2017-03-03T12:49:56.617Z,28.44
2017-03-03T12:50:56.651Z,28.53
2017-03-03T12:51:56.703Z,28.53
2017-03-03T12:52:56.734Z,28.7
2017-03-03T12:53:57.176Z,28.9
2017-03-03T12:54:56.814Z,28.9